Check out our new BloomSky Weather System.

Active alerts

Galveston, TX
  Details for Galveston, TX Coastal Flood Advisory  +3 additional alerts
Houston, TX
  Details for Houston, TX Flash Flood Watch
Fort Bend, TX
  Details for Fort Bend, TX Flash Flood Watch


Thunder radar  blitzortung!


Rain radar more information rain snow radar


Visit our other weather sites:

Template documentation
and downloads

And another site



Weather Underground History page Text

Daily Summary for May 8, 2017 Units:  English    Metric   Both
« Previous Day
Next Day »
Daily Weekly Monthly Yearly Custom
  High: Low: Average:
Temperature: TemperatureF °F 62.8 °F 72.9 °F
Dew Point: DewpointF °F 59.5 °F 63.3 °F
Humidity: Humidity % 53 % 73 %
Wind Speed: WindSpeedMPH mph 0.0 mph 3.1 mph
Wind Gust: WindSpeedGustMPH mph - -
Wind:- - SE
Pressure: PressureIn in 29.96 in -
Precipitation: 0.00 in    
Historical Graphs
 
 
Tabular Data for May 8, 2017
Time Temperature Dew Point Pressure Wind Wind Speed Wind Gust Humidity Rainfall Rate (Hourly)
TemperatureF °F DewpointF °F PressureIn in Calm     Humidity % HourlyPrecipIn in
00:01 68.5 °F 60.3 °F 29.98 in Calm   2.0 mph 75 % 0.00 in
00:06 68.2 °F 60.3 °F 29.98 in Calm   1.0 mph 76 % 0.00 in
00:11 67.8 °F 60.3 °F 29.98 in Calm   1.0 mph 77 % 0.00 in
00:16 67.5 °F 60.1 °F 29.98 in Calm   1.0 mph 77 % 0.00 in
00:21 67.3 °F 60.3 °F 29.98 in Calm   1.0 mph 78 % 0.00 in
00:22 67.3 °F 60.3 °F 29.98 in Calm   1.0 mph 78 % 0.00 in
00:27 66.9 °F 59.9 °F 29.98 in Calm   1.0 mph 78 % 0.00 in
00:32 66.7 °F 60.1 °F 29.98 in Calm   1.0 mph 79 % 0.00 in
00:37 66.6 °F 60.3 °F 29.98 in Calm   1.0 mph 80 % 0.00 in
00:42 66.4 °F 60.1 °F 29.98 in Calm     80 % 0.00 in
00:47 66.0 °F 60.1 °F 29.98 in Calm     81 % 0.00 in
00:52 65.8 °F 59.9 °F 29.98 in Calm     81 % 0.00 in
00:57 65.7 °F 60.1 °F 29.97 in Calm     82 % 0.00 in
01:02 65.5 °F 59.9 °F 29.97 in Calm     82 % 0.00 in
01:07 65.1 °F 59.9 °F 29.97 in Calm     83 % 0.00 in
01:12 64.9 °F 59.7 °F 29.98 in Calm     83 % 0.00 in
01:17 64.8 °F 59.9 °F 29.97 in Calm     84 % 0.00 in
01:22 64.6 °F 59.7 °F 29.97 in Calm     84 % 0.00 in
01:27 64.6 °F 59.9 °F 29.97 in Calm     85 % 0.00 in
01:32 64.6 °F 59.9 °F 29.97 in Calm     85 % 0.00 in
01:37 64.2 °F 59.5 °F 29.97 in Calm   1.0 mph 85 % 0.00 in
01:42 64.2 °F 59.9 °F 29.97 in Calm   1.0 mph 86 % 0.00 in
01:47 64.0 °F 59.7 °F 29.97 in Calm   1.0 mph 86 % 0.00 in
01:52 63.9 °F 59.5 °F 29.96 in Calm   1.0 mph 86 % 0.00 in
01:57 63.9 °F 59.9 °F 29.96 in Calm     87 % 0.00 in
02:02 63.7 °F 59.7 °F 29.96 in Calm     87 % 0.00 in
02:07 63.7 °F 59.7 °F 29.97 in Calm     87 % 0.00 in
02:12 63.5 °F 59.5 °F 29.97 in Calm     87 % 0.00 in
02:17 63.3 °F 59.7 °F 29.97 in Calm     88 % 0.00 in
02:22 63.5 °F 59.9 °F 29.97 in Calm     88 % 0.00 in
02:27 63.7 °F 60.1 °F 29.96 in Calm     88 % 0.00 in
02:32 63.9 °F 60.3 °F 29.96 in Calm     88 % 0.00 in
02:37 63.9 °F 60.3 °F 29.96 in Calm     88 % 0.00 in
02:42 64.0 °F 60.4 °F 29.96 in Calm     88 % 0.00 in
02:47 64.2 °F 60.6 °F 29.96 in Calm   1.0 mph 88 % 0.00 in
02:52 64.6 °F 61.0 °F 29.96 in Calm   1.0 mph 88 % 0.00 in
02:57 64.6 °F 61.0 °F 29.96 in Calm   1.0 mph 88 % 0.00 in
03:02 64.6 °F 61.0 °F 29.96 in Calm     88 % 0.00 in
03:07 64.6 °F 61.0 °F 29.96 in Calm     88 % 0.00 in
03:12 64.6 °F 61.0 °F 29.96 in Calm     88 % 0.00 in
03:17 64.6 °F 61.0 °F 29.96 in Calm   1.0 mph 88 % 0.00 in
03:22 64.2 °F 60.6 °F 29.96 in Calm   1.0 mph 88 % 0.00 in
03:27 64.0 °F 60.4 °F 29.96 in Calm   1.0 mph 88 % 0.00 in
03:32 63.9 °F 60.3 °F 29.96 in Calm     88 % 0.00 in
03:37 63.7 °F 60.1 °F 29.96 in Calm     88 % 0.00 in
03:42 63.5 °F 60.3 °F 29.96 in Calm     89 % 0.00 in
03:44 63.5 °F 60.3 °F 29.96 in Calm     89 % 0.00 in
03:49 63.1 °F 59.9 °F 29.97 in Calm     89 % 0.00 in
03:54 63.1 °F 60.1 °F 29.97 in Calm     90 % 0.00 in
03:59 63.0 °F 59.9 °F 29.97 in Calm     90 % 0.00 in
04:04 63.1 °F 60.1 °F 29.97 in Calm     90 % 0.00 in
04:09 63.1 °F 60.4 °F 29.97 in Calm     91 % 0.00 in
04:14 63.3 °F 60.6 °F 29.97 in Calm   1.0 mph 91 % 0.00 in
04:19 63.5 °F 60.8 °F 29.97 in Calm   1.0 mph 91 % 0.00 in
04:24 63.5 °F 60.4 °F 29.97 in Calm   1.0 mph 90 % 0.00 in
04:29 63.5 °F 60.4 °F 29.97 in Calm   1.0 mph 90 % 0.00 in
04:34 63.5 °F 60.4 °F 29.97 in Calm   1.0 mph 90 % 0.00 in
04:39 63.5 °F 60.4 °F 29.97 in Calm   1.0 mph 90 % 0.00 in
04:44 63.5 °F 60.8 °F 29.97 in Calm   1.0 mph 91 % 0.00 in
04:49 63.7 °F 60.6 °F 29.97 in Calm   1.0 mph 90 % 0.00 in
04:54 63.7 °F 61.0 °F 29.97 in Calm   1.0 mph 91 % 0.00 in
04:59 63.7 °F 61.0 °F 29.97 in Calm   1.0 mph 91 % 0.00 in
05:04 63.7 °F 61.0 °F 29.97 in Calm   1.0 mph 91 % 0.00 in
05:09 63.9 °F 61.2 °F 29.97 in Calm   1.0 mph 91 % 0.00 in
05:14 63.9 °F 61.2 °F 29.97 in Calm   1.0 mph 91 % 0.00 in
05:19 63.9 °F 61.2 °F 29.97 in Calm   1.0 mph 91 % 0.00 in
05:24 63.9 °F 61.2 °F 29.97 in Calm   1.0 mph 91 % 0.00 in
05:29 63.9 °F 61.2 °F 29.97 in Calm   1.0 mph 91 % 0.00 in
05:34 63.7 °F 61.0 °F 29.97 in Calm   1.0 mph 91 % 0.00 in
05:39 63.7 °F 61.0 °F 29.97 in Calm   1.0 mph 91 % 0.00 in
05:44 63.5 °F 60.8 °F 29.98 in Calm   1.0 mph 91 % 0.00 in
05:49 63.3 °F 60.6 °F 29.98 in Calm   1.0 mph 91 % 0.00 in
05:54 63.3 °F 60.6 °F 29.97 in Calm     91 % 0.00 in
05:59 63.1 °F 60.4 °F 29.98 in Calm     91 % 0.00 in
06:04 63.1 °F 60.4 °F 29.98 in Calm   1.0 mph 91 % 0.00 in
06:09 63.0 °F 60.6 °F 29.98 in Calm   1.0 mph 92 % 0.00 in
06:14 63.0 °F 60.6 °F 29.98 in Calm   1.0 mph 92 % 0.00 in
06:19 62.8 °F 60.4 °F 29.98 in Calm   1.0 mph 92 % 0.00 in
06:24 62.8 °F 60.4 °F 29.99 in Calm   1.0 mph 92 % 0.00 in
06:29 62.8 °F 60.4 °F 29.99 in Calm   1.0 mph 92 % 0.00 in
06:34 62.8 °F 60.8 °F 29.99 in Calm     93 % 0.00 in
06:39 63.0 °F 61.0 °F 29.99 in Calm     93 % 0.00 in
06:44 63.1 °F 61.2 °F 29.99 in Calm     93 % 0.00 in
06:49 63.3 °F 61.3 °F 29.99 in Calm     93 % 0.00 in
06:54 63.3 °F 61.3 °F 29.99 in Calm     93 % 0.00 in
06:59 63.7 °F 61.7 °F 29.99 in Calm   1.0 mph 93 % 0.00 in
07:04 63.9 °F 61.5 °F 29.99 in Calm   1.0 mph 92 % 0.00 in
07:09 63.9 °F 61.5 °F 30.00 in Calm   1.0 mph 92 % 0.00 in
07:14 64.2 °F 61.9 °F 30.00 in Calm   1.0 mph 92 % 0.00 in
07:19 64.6 °F 62.2 °F 30.00 in Calm   1.0 mph 92 % 0.00 in
07:24 64.8 °F 62.4 °F 30.00 in Calm   1.0 mph 92 % 0.00 in
07:29 65.3 °F 63.0 °F 30.01 in Calm   1.0 mph 92 % 0.00 in
07:30 65.5 °F 63.1 °F 30.01 in Calm   1.0 mph 92 % 0.00 in
07:35 65.8 °F 63.1 °F 30.01 in Calm   1.0 mph 91 % 0.00 in
07:40 66.0 °F 63.0 °F 30.01 in Calm   1.0 mph 90 % 0.00 in
07:45 66.4 °F 63.3 °F 30.01 in Calm   1.0 mph 90 % 0.00 in
07:50 66.7 °F 63.3 °F 30.01 in Calm   1.0 mph 89 % 0.00 in
07:55 67.1 °F 63.7 °F 30.01 in Calm   1.0 mph 89 % 0.00 in
08:00 67.5 °F 63.9 °F 30.01 in Calm   1.0 mph 88 % 0.00 in
08:05 67.8 °F 64.2 °F 30.01 in Calm   1.0 mph 88 % 0.00 in
08:10 68.4 °F 64.4 °F 30.02 in Calm   1.0 mph 87 % 0.00 in
08:15 68.5 °F 63.9 °F 30.02 in Calm   2.0 mph 85 % 0.00 in
08:20 69.3 °F 64.6 °F 30.01 in NE 1.0 mph 2.0 mph 85 % 0.00 in
08:26 70.3 °F 64.9 °F 30.01 in Calm   2.0 mph 83 % 0.00 in
08:31 71.4 °F 64.9 °F 30.02 in Calm   3.0 mph 80 % 0.00 in
08:36 72.0 °F 64.8 °F 30.02 in East 1.0 mph 4.0 mph 78 % 0.00 in
08:41 72.3 °F 64.4 °F 30.02 in East 1.0 mph 4.0 mph 76 % 0.00 in
08:46 72.1 °F 64.2 °F 30.02 in Calm   4.0 mph 76 % 0.00 in
08:51 72.3 °F 64.4 °F 30.02 in Calm   4.0 mph 76 % 0.00 in
08:56 72.7 °F 64.2 °F 30.02 in Calm   3.0 mph 75 % 0.00 in
09:01 73.0 °F 64.2 °F 30.02 in East 5.0 mph 5.0 mph 74 % 0.00 in
09:06 73.2 °F 64.4 °F 30.02 in ESE 5.0 mph 6.0 mph 74 % 0.00 in
09:11 73.8 °F 64.9 °F 30.02 in ENE 1.0 mph 7.0 mph 74 % 0.00 in
09:16 74.1 °F 64.6 °F 30.02 in ESE 3.0 mph 7.0 mph 72 % 0.00 in
09:21 74.8 °F 65.1 °F 30.02 in SE 3.0 mph 9.0 mph 72 % 0.00 in
09:26 75.0 °F 64.9 °F 30.02 in NW 2.0 mph 9.0 mph 71 % 0.00 in
09:31 75.6 °F 65.1 °F 30.02 in East 4.0 mph 9.0 mph 70 % 0.00 in
09:36 75.9 °F 65.5 °F 30.02 in East 4.0 mph 9.0 mph 70 % 0.00 in
09:41 76.5 °F 65.5 °F 30.02 in SSE 1.0 mph 7.0 mph 69 % 0.00 in
09:46 77.4 °F 65.1 °F 30.02 in SE 5.0 mph 8.0 mph 66 % 0.00 in
09:51 77.5 °F 64.4 °F 30.02 in SSE 4.0 mph 8.0 mph 64 % 0.00 in
09:56 77.5 °F 64.4 °F 30.02 in SSE 7.0 mph 11.0 mph 64 % 0.00 in
10:01 77.7 °F 64.0 °F 30.02 in ENE 6.0 mph 11.0 mph 63 % 0.00 in
10:06 77.4 °F 63.9 °F 30.02 in SE 6.0 mph 11.0 mph 63 % 0.00 in
10:11 77.2 °F 64.0 °F 30.03 in ESE 4.0 mph 11.0 mph 64 % 0.00 in
10:16 77.4 °F 64.2 °F 30.03 in SE 3.0 mph 10.0 mph 64 % 0.00 in
10:21 77.5 °F 64.4 °F 30.03 in South 5.0 mph 9.0 mph 64 % 0.00 in
10:26 77.9 °F 65.1 °F 30.03 in ESE 2.0 mph 9.0 mph 65 % 0.00 in
10:31 77.5 °F 64.4 °F 30.03 in ESE 5.0 mph 11.0 mph 64 % 0.00 in
10:36 77.5 °F 64.4 °F 30.03 in ENE 4.0 mph 11.0 mph 64 % 0.00 in
10:41 77.7 °F 64.0 °F 30.03 in ESE 7.0 mph 11.0 mph 63 % 0.00 in
10:46 78.3 °F 64.2 °F 30.03 in SE 4.0 mph 10.0 mph 62 % 0.00 in
10:51 79.0 °F 64.8 °F 30.03 in ESE 4.0 mph 10.0 mph 62 % 0.00 in
10:56 79.2 °F 64.6 °F 30.02 in SE 3.0 mph 10.0 mph 61 % 0.00 in
11:01 79.3 °F 65.1 °F 30.02 in ESE 3.0 mph 10.0 mph 62 % 0.00 in
11:06 80.2 °F 65.5 °F 30.03 in ENE 4.0 mph 9.0 mph 61 % 0.00 in
11:11 80.2 °F 64.6 °F 30.03 in SE 10.0 mph 12.0 mph 59 % 0.00 in
11:16 80.2 °F 64.6 °F 30.03 in South 7.0 mph 12.0 mph 59 % 0.00 in
11:21 80.1 °F 64.4 °F 30.03 in South 4.0 mph 12.0 mph 59 % 0.00 in
11:26 80.2 °F 64.0 °F 30.03 in ESE 8.0 mph 12.0 mph 58 % 0.00 in
11:31 79.9 °F 64.2 °F 30.03 in SSE 4.0 mph 12.0 mph 59 % 0.00 in
11:36 80.1 °F 63.9 °F 30.03 in East 4.0 mph 12.0 mph 58 % 0.00 in
11:41 79.9 °F 63.9 °F 30.03 in ESE 3.0 mph 12.0 mph 58 % 0.00 in
11:46 80.1 °F 63.9 °F 30.03 in SE 5.0 mph 9.0 mph 58 % 0.00 in
11:51 80.1 °F 63.9 °F 30.03 in ESE 3.0 mph 8.0 mph 58 % 0.00 in
11:57 80.2 °F 63.7 °F 30.03 in SSE 5.0 mph 11.0 mph 57 % 0.00 in
12:02 80.8 °F 64.6 °F 30.03 in SSE 8.0 mph 11.0 mph 58 % 0.00 in
12:07 80.6 °F 64.0 °F 30.03 in SW 4.0 mph 11.0 mph 57 % 0.00 in
12:12 80.8 °F 64.6 °F 30.03 in ESE 4.0 mph 11.0 mph 58 % 0.00 in
12:20 80.8 °F 63.7 °F 30.02 in SSE 6.0 mph 11.0 mph 56 % 0.00 in
12:25 81.1 °F 63.5 °F 30.02 in SSE 4.0 mph 11.0 mph 55 % 0.00 in
12:30 81.9 °F 64.6 °F 30.02 in SSE 6.0 mph 12.0 mph 56 % 0.00 in
12:35 82.2 °F 63.9 °F 30.02 in SE 4.0 mph 12.0 mph 54 % 0.00 in
12:40 82.0 °F 63.1 °F 30.01 in East 2.0 mph 12.0 mph 53 % 0.00 in
12:45 82.0 °F 64.2 °F 30.01 in SSW 7.0 mph 10.0 mph 55 % 0.00 in
12:50 82.0 °F 64.8 °F 30.01 in SE 4.0 mph 12.0 mph 56 % 0.00 in
12:55 82.2 °F 63.3 °F 30.01 in SSE 3.0 mph 12.0 mph 53 % 0.00 in
13:00 82.2 °F 64.9 °F 30.01 in ESE 5.0 mph 12.0 mph 56 % 0.00 in
13:05 82.6 °F 64.8 °F 30.01 in SSE 6.0 mph 11.0 mph 55 % 0.00 in
13:10 82.2 °F 64.9 °F 30.01 in SE 5.0 mph 13.0 mph 56 % 0.00 in
13:15 82.6 °F 64.8 °F 30.01 in SSE 7.0 mph 15.0 mph 55 % 0.00 in
13:20 82.2 °F 64.4 °F 30.00 in ESE 4.0 mph 15.0 mph 55 % 0.00 in
13:25 82.8 °F 66.0 °F 30.00 in NE 7.0 mph 15.0 mph 57 % 0.00 in
13:30 83.1 °F 65.3 °F 30.00 in South 6.0 mph 11.0 mph 55 % 0.00 in
13:35 83.5 °F 65.7 °F 29.99 in SSE 4.0 mph 11.0 mph 55 % 0.00 in
13:40 83.8 °F 66.0 °F 29.99 in SE 9.0 mph 13.0 mph 55 % 0.00 in
13:45 83.5 °F 65.7 °F 29.99 in SSE 4.0 mph 13.0 mph 55 % 0.00 in
13:50 82.8 °F 64.9 °F 29.99 in East 6.0 mph 13.0 mph 55 % 0.00 in
13:55 82.2 °F 64.9 °F 29.99 in SSE 5.0 mph 14.0 mph 56 % 0.00 in
14:00 82.4 °F 66.2 °F 29.99 in SE 3.0 mph 14.0 mph 58 % 0.00 in
14:05 83.1 °F 66.4 °F 29.99 in SSW 7.0 mph 14.0 mph 57 % 0.00 in
14:10 83.5 °F 66.2 °F 29.99 in ESE 9.0 mph 14.0 mph 56 % 0.00 in
14:15 83.7 °F 66.7 °F 29.99 in SE 5.0 mph 20.0 mph 57 % 0.00 in
14:20 83.8 °F 66.9 °F 29.99 in SE 7.0 mph 20.0 mph 57 % 0.00 in
14:25 83.1 °F 66.4 °F 29.99 in SE 6.0 mph 20.0 mph 57 % 0.00 in
14:30 83.1 °F 66.4 °F 29.99 in SE 6.0 mph 16.0 mph 57 % 0.00 in
14:35 82.9 °F 67.1 °F 29.99 in SE 14.0 mph 16.0 mph 59 % 0.00 in
14:40 82.4 °F 67.1 °F 29.99 in SE 10.0 mph 16.0 mph 60 % 0.00 in
14:45 82.8 °F 66.9 °F 29.99 in SE 10.0 mph 14.0 mph 59 % 0.00 in
14:51 82.0 °F 66.4 °F 29.98 in SSE 6.0 mph 14.0 mph 59 % 0.00 in
14:56 81.7 °F 66.0 °F 29.98 in SE 6.0 mph 16.0 mph 59 % 0.00 in
15:01 81.5 °F 66.2 °F 29.99 in ESE 6.0 mph 16.0 mph 60 % 0.00 in
15:06 82.2 °F 66.9 °F 29.99 in SE 7.0 mph 16.0 mph 60 % 0.00 in
15:10 82.2 °F 66.0 °F 29.98 in ESE 9.0 mph 14.0 mph 58 % 0.00 in
15:15 81.9 °F 65.7 °F 29.98 in ENE 6.0 mph 14.0 mph 58 % 0.00 in
15:20 81.5 °F 66.2 °F 29.98 in East 8.0 mph 13.0 mph 60 % 0.00 in
15:25 81.9 °F 66.6 °F 29.98 in SE 11.0 mph 17.0 mph 60 % 0.00 in
15:30 82.2 °F 66.0 °F 29.98 in East 12.0 mph 17.0 mph 58 % 0.00 in
15:36 82.8 °F 66.6 °F 29.97 in South 8.0 mph 17.0 mph 58 % 0.00 in
15:41 82.6 °F 66.4 °F 29.97 in SSW 11.0 mph 17.0 mph 58 % 0.00 in
15:46 82.9 °F 66.2 °F 29.97 in East 8.0 mph 14.0 mph 57 % 0.00 in
15:51 82.8 °F 66.6 °F 29.97 in ESE 9.0 mph 17.0 mph 58 % 0.00 in
15:56 82.8 °F 66.6 °F 29.96 in SSE 7.0 mph 17.0 mph 58 % 0.00 in
16:01 83.5 °F 66.6 °F 29.96 in ESE 12.0 mph 17.0 mph 57 % 0.00 in
16:06 82.8 °F 66.6 °F 29.96 in SSE 11.0 mph 15.0 mph 58 % 0.00 in
16:11 82.2 °F 66.9 °F 29.96 in ENE 9.0 mph 15.0 mph 60 % 0.00 in
16:16 81.9 °F 67.1 °F 29.96 in SE 4.0 mph 15.0 mph 61 % 0.00 in
16:21 82.0 °F 66.4 °F 29.96 in SSE 3.0 mph 15.0 mph 59 % 0.00 in
16:26 81.7 °F 66.9 °F 29.96 in ESE 6.0 mph 15.0 mph 61 % 0.00 in
16:31 82.0 °F 66.4 °F 29.96 in SSE 9.0 mph 18.0 mph 59 % 0.00 in
16:36 82.2 °F 66.4 °F 29.96 in SE 10.0 mph 18.0 mph 59 % 0.00 in
16:41 82.2 °F 66.4 °F 29.96 in South 11.0 mph 18.0 mph 59 % 0.00 in
16:46 82.2 °F 66.4 °F 29.96 in SE 10.0 mph 14.0 mph 59 % 0.00 in
16:51 81.7 °F 66.4 °F 29.96 in SE 6.0 mph 15.0 mph 60 % 0.00 in
16:56 81.9 °F 66.2 °F 29.96 in East 10.0 mph 17.0 mph 59 % 0.00 in
17:01 81.3 °F 66.0 °F 29.96 in SE 4.0 mph 17.0 mph 60 % 0.00 in
17:06 81.3 °F 66.0 °F 29.96 in SE 6.0 mph 17.0 mph 60 % 0.00 in
17:11 80.4 °F 65.7 °F 29.96 in ESE 9.0 mph 16.0 mph 61 % 0.00 in
17:16 80.1 °F 65.8 °F 29.96 in East 3.0 mph 16.0 mph 62 % 0.00 in
17:21 80.1 °F 66.4 °F 29.96 in SSE 4.0 mph 16.0 mph 63 % 0.00 in
17:26 80.1 °F 65.8 °F 29.96 in SE 7.0 mph 16.0 mph 62 % 0.00 in
17:31 80.1 °F 66.4 °F 29.96 in SE 10.0 mph 16.0 mph 63 % 0.00 in
17:36 80.4 °F 66.2 °F 29.96 in ENE 6.0 mph 16.0 mph 62 % 0.00 in
17:41 80.2 °F 66.6 °F 29.96 in SE 4.0 mph 13.0 mph 63 % 0.00 in
17:46 80.1 °F 66.4 °F 29.96 in SE 4.0 mph 13.0 mph 63 % 0.00 in
17:51 80.1 °F 65.8 °F 29.96 in East 7.0 mph 13.0 mph 62 % 0.00 in
17:56 79.3 °F 65.7 °F 29.96 in South 5.0 mph 15.0 mph 63 % 0.00 in
18:01 79.2 °F 64.9 °F 29.96 in East 7.0 mph 15.0 mph 62 % 0.00 in
18:06 79.3 °F 65.7 °F 29.96 in SE 4.0 mph 15.0 mph 63 % 0.00 in
18:11 79.3 °F 65.1 °F 29.96 in ESE 4.0 mph 15.0 mph 62 % 0.00 in
18:16 79.2 °F 64.9 °F 29.96 in SE 7.0 mph 12.0 mph 62 % 0.00 in
18:21 79.3 °F 65.1 °F 29.96 in ESE 6.0 mph 12.0 mph 62 % 0.00 in
18:26 79.2 °F 64.9 °F 29.96 in SE 11.0 mph 14.0 mph 62 % 0.00 in
18:31 79.0 °F 64.8 °F 29.97 in ESE 6.0 mph 14.0 mph 62 % 0.00 in
18:36 79.0 °F 64.8 °F 29.97 in SE 6.0 mph 14.0 mph 62 % 0.00 in
18:41 78.8 °F 64.8 °F 29.97 in SE 4.0 mph 11.0 mph 62 % 0.00 in
18:46 78.3 °F 64.2 °F 29.97 in East 6.0 mph 14.0 mph 62 % 0.00 in
18:51 78.1 °F 64.4 °F 29.97 in SE 4.0 mph 14.0 mph 63 % 0.00 in
18:56 77.7 °F 64.0 °F 29.97 in SSE 4.0 mph 14.0 mph 63 % 0.00 in
19:01 77.5 °F 64.4 °F 29.97 in SE 8.0 mph 11.0 mph 64 % 0.00 in
19:02 77.5 °F 64.4 °F 29.97 in East 9.0 mph 11.0 mph 64 % 0.00 in
19:07 77.4 °F 64.2 °F 29.97 in SSE 6.0 mph 12.0 mph 64 % 0.00 in
19:12 77.2 °F 64.6 °F 29.98 in ENE 5.0 mph 12.0 mph 65 % 0.00 in
19:17 77.0 °F 64.4 °F 29.98 in SSW 2.0 mph 14.0 mph 65 % 0.00 in
19:22 76.8 °F 64.6 °F 29.97 in South 2.0 mph 14.0 mph 66 % 0.00 in
19:27 76.6 °F 64.4 °F 29.98 in SSE 6.0 mph 14.0 mph 66 % 0.00 in
19:32 76.6 °F 64.9 °F 29.98 in SSE 3.0 mph 14.0 mph 67 % 0.00 in
19:37 76.5 °F 64.8 °F 29.98 in South 8.0 mph 14.0 mph 67 % 0.00 in
19:43 76.3 °F 64.9 °F 29.98 in South 6.0 mph 13.0 mph 68 % 0.00 in
19:48 76.1 °F 64.8 °F 29.98 in East 8.0 mph 13.0 mph 68 % 0.00 in
19:53 75.9 °F 64.6 °F 29.99 in SSE 8.0 mph 13.0 mph 68 % 0.00 in
19:57 75.7 °F 64.8 °F 29.98 in ENE 5.0 mph 11.0 mph 69 % 0.00 in
20:02 75.6 °F 64.8 °F 29.98 in South 3.0 mph 11.0 mph 69 % 0.00 in
20:07 75.4 °F 64.6 °F 29.98 in SE 4.0 mph 11.0 mph 69 % 0.00 in
20:12 75.2 °F 64.8 °F 29.99 in SSE 5.0 mph 9.0 mph 70 % 0.00 in
20:18 75.0 °F 64.6 °F 29.99 in SE 5.0 mph 9.0 mph 70 % 0.00 in
20:22 74.8 °F 64.8 °F 29.99 in SE 4.0 mph 9.0 mph 71 % 0.00 in
20:28 74.8 °F 64.8 °F 29.99 in SE 2.0 mph 9.0 mph 71 % 0.00 in
20:33 74.7 °F 64.6 °F 29.99 in SE 7.0 mph 9.0 mph 71 % 0.00 in
20:38 74.7 °F 64.6 °F 30.00 in ESE 4.0 mph 10.0 mph 71 % 0.00 in
20:43 74.5 °F 64.9 °F 30.00 in SSE 4.0 mph 10.0 mph 72 % 0.00 in
20:48 74.5 °F 64.9 °F 29.99 in SE 4.0 mph 10.0 mph 72 % 0.00 in
20:53 74.3 °F 64.8 °F 30.00 in SE 3.0 mph 9.0 mph 72 % 0.00 in
20:58 74.1 °F 64.6 °F 30.00 in ENE 6.0 mph 9.0 mph 72 % 0.00 in
21:03 74.1 °F 64.6 °F 30.00 in SSE 3.0 mph 9.0 mph 72 % 0.00 in
21:08 73.9 °F 64.8 °F 30.00 in SE 3.0 mph 8.0 mph 73 % 0.00 in
21:13 73.9 °F 64.8 °F 30.01 in SE 3.0 mph 7.0 mph 73 % 0.00 in
21:18 73.8 °F 64.6 °F 30.00 in SE 4.0 mph 7.0 mph 73 % 0.00 in
21:23 73.8 °F 64.6 °F 30.01 in SE 3.0 mph 7.0 mph 73 % 0.00 in
21:28 73.6 °F 64.8 °F 30.01 in SSE 2.0 mph 5.0 mph 74 % 0.00 in
21:33 73.6 °F 64.8 °F 30.01 in ESE 1.0 mph 5.0 mph 74 % 0.00 in
21:38 73.4 °F 64.6 °F 30.01 in ESE 3.0 mph 5.0 mph 74 % 0.00 in
21:43 73.2 °F 64.4 °F 30.01 in South 1.0 mph 6.0 mph 74 % 0.00 in
21:48 73.2 °F 64.4 °F 30.01 in East 4.0 mph 6.0 mph 74 % 0.00 in
21:53 73.0 °F 64.2 °F 30.01 in SE 2.0 mph 6.0 mph 74 % 0.00 in
21:58 72.9 °F 64.0 °F 30.00 in SE 1.0 mph 5.0 mph 74 % 0.00 in
22:03 72.9 °F 63.7 °F 30.00 in ESE 3.0 mph 6.0 mph 73 % 0.00 in
22:08 72.9 °F 63.7 °F 30.00 in SSE 2.0 mph 6.0 mph 73 % 0.00 in
22:13 72.9 °F 63.7 °F 30.01 in ESE 1.0 mph 7.0 mph 73 % 0.00 in
22:18 72.7 °F 63.5 °F 30.01 in SE 3.0 mph 7.0 mph 73 % 0.00 in
22:23 72.7 °F 63.5 °F 30.01 in SE 6.0 mph 7.0 mph 73 % 0.00 in
22:28 72.7 °F 63.5 °F 30.01 in East 2.0 mph 7.0 mph 73 % 0.00 in
22:33 72.3 °F 63.5 °F 30.01 in SE 1.0 mph 7.0 mph 74 % 0.00 in
22:38 72.3 °F 63.5 °F 30.01 in ESE 1.0 mph 7.0 mph 74 % 0.00 in
22:43 72.1 °F 63.3 °F 30.01 in SE 5.0 mph 5.0 mph 74 % 0.00 in
22:48 72.1 °F 63.3 °F 30.01 in Calm   5.0 mph 74 % 0.00 in
22:53 72.0 °F 63.7 °F 30.01 in SE 2.0 mph 5.0 mph 75 % 0.00 in
22:58 71.8 °F 63.5 °F 30.01 in SE 1.0 mph 5.0 mph 75 % 0.00 in
23:03 71.8 °F 63.5 °F 30.01 in SE 2.0 mph 3.0 mph 75 % 0.00 in
23:08 71.4 °F 63.1 °F 30.01 in SE 1.0 mph 4.0 mph 75 % 0.00 in
23:13 71.4 °F 63.5 °F 30.01 in SE 1.0 mph 4.0 mph 76 % 0.00 in
23:18 71.2 °F 63.3 °F 30.01 in ESE 2.0 mph 4.0 mph 76 % 0.00 in
23:23 71.2 °F 63.7 °F 30.01 in East 1.0 mph 3.0 mph 77 % 0.00 in
23:28 71.1 °F 63.5 °F 30.01 in ESE 1.0 mph 3.0 mph 77 % 0.00 in
23:33 71.1 °F 63.5 °F 30.01 in Calm   3.0 mph 77 % 0.00 in
23:38 70.9 °F 63.3 °F 30.01 in Calm   3.0 mph 77 % 0.00 in
23:43 70.9 °F 63.7 °F 30.01 in Calm   3.0 mph 78 % 0.00 in
23:48 70.5 °F 63.3 °F 30.01 in Calm   3.0 mph 78 % 0.00 in
23:53 70.5 °F 63.7 °F 30.01 in Calm   1.0 mph 79 % 0.00 in
23:58 70.3 °F 63.5 °F 30.00 in ESE 1.0 mph 2.0 mph 79 % 0.00 in
Spring, Texas: Villages of Bridgestone
Compliments of Weather Underground - 3 mb

Script developed by  Jim McMurry - jmcmurry@mwt.net Adapted for the template by  Wim van der Kuil - Leuven-Template.eu

You find our weather info also at:

UK Metoffice

WeatherCloud

Weather Underground

Mid-South Weather Network

AWEKAS

Citizen Weather Observer Program (CWOP)

HAMweather, WeatherForYou, PWS Weather

Equipment we use:

Weather-station
Davis Vantage Vue

Weather-program
Meteohub

Weather-server
Debian 7.9 x86 (Guest)

Provider
DreamHost

Davis Vantage Vue

Meteohub

Debian 7.9 x86 (Guest)

DreamHost